Time,TemperatureF,DewpointF,PressureIn,WindDirection,WindDirectionDegrees,WindSpeedMPH,WindSpeedGustMPH,Humidity,HourlyPrecipIn,Conditions,Clouds,dailyrainin,SoftwareType,DateUTC
2013-02-14 00:01:00,38.0,35.0,-100.00,ESE,105,1.0,3.0,88,-99.99,,,-99.99,,2013-02-14 08:01:00,
2013-02-14 00:11:00,38.0,35.0,-100.00,ESE,105,1.0,3.0,88,-99.99,,,-99.99,,2013-02-14 08:11:00,
2013-02-14 01:01:00,36.0,34.0,-100.00,ESE,120,2.0,3.0,92,-99.99,,,-99.99,,2013-02-14 09:01:00,
2013-02-14 01:11:00,36.0,34.0,-100.00,ESE,120,2.0,3.0,92,-99.99,,,-99.99,,2013-02-14 09:11:00,
2013-02-14 02:02:00,36.0,33.0,-100.00,ESE,120,3.0,3.0,88,-99.99,,,-99.99,,2013-02-14 10:02:00,
2013-02-14 02:11:00,36.0,33.0,-100.00,ESE,120,3.0,3.0,88,-99.99,,,-99.99,,2013-02-14 10:11:00,
2013-02-14 03:01:00,36.0,34.0,-100.00,SE,135,2.0,3.0,92,-99.99,,,-99.99,,2013-02-14 11:01:00,
2013-02-14 03:11:00,36.0,34.0,-100.00,SE,135,2.0,3.0,92,-99.99,,,-99.99,,2013-02-14 11:11:00,
2013-02-14 04:01:00,36.0,34.0,-100.00,SE,125,2.0,3.0,92,-99.99,,,-99.99,,2013-02-14 12:01:00,
2013-02-14 04:11:00,36.0,34.0,-100.00,SE,125,2.0,3.0,92,-99.99,,,-99.99,,2013-02-14 12:11:00,
2013-02-14 05:01:00,36.0,34.0,-100.00,ESE,115,1.0,5.0,92,-99.99,,,-99.99,,2013-02-14 13:01:00,
2013-02-14 05:11:00,36.0,34.0,-100.00,ESE,115,1.0,5.0,92,-99.99,,,-99.99,,2013-02-14 13:11:00,
2013-02-14 06:01:00,37.0,35.0,-100.00,East,85,2.0,3.0,92,-99.99,,,-99.99,,2013-02-14 14:01:00,
2013-02-14 06:11:00,37.0,35.0,-100.00,East,85,2.0,3.0,92,-99.99,,,-99.99,,2013-02-14 14:11:00,
2013-02-14 07:01:00,38.0,36.0,-100.00,East,90,1.0,3.0,92,-99.99,,,-99.99,,2013-02-14 15:01:00,
2013-02-14 07:11:00,38.0,36.0,-100.00,East,90,1.0,3.0,92,-99.99,,,-99.99,,2013-02-14 15:11:00,
2013-02-14 08:01:00,39.0,37.0,-100.00,East,90,3.0,6.0,92,-99.99,,,-99.99,,2013-02-14 16:01:00,
2013-02-14 08:11:00,39.0,37.0,-100.00,East,90,3.0,6.0,92,-99.99,,,-99.99,,2013-02-14 16:11:00,
2013-02-14 09:01:00,40.0,37.0,-100.00,ESE,105,3.0,8.0,88,-99.99,,,-99.99,,2013-02-14 17:01:00,
2013-02-14 09:11:00,40.0,37.0,-100.00,ESE,105,3.0,8.0,88,-99.99,,,-99.99,,2013-02-14 17:11:00,
2013-02-14 10:01:00,41.0,39.0,-100.00,East,80,1.0,3.0,92,-99.99,,,-99.99,,2013-02-14 18:01:00,
2013-02-14 10:11:00,41.0,39.0,-100.00,East,80,1.0,3.0,92,-99.99,,,-99.99,,2013-02-14 18:11:00,
2013-02-14 11:02:00,43.0,39.0,-100.00,East,80,3.0,3.0,85,-99.99,,,-99.99,,2013-02-14 19:02:00,
2013-02-14 11:11:00,43.0,39.0,-100.00,East,80,3.0,3.0,85,-99.99,,,-99.99,,2013-02-14 19:11:00,
2013-02-14 12:01:00,46.0,38.0,-100.00,ENE,70,3.0,5.0,73,-99.99,,,-99.99,,2013-02-14 20:01:00,
2013-02-14 12:11:00,46.0,38.0,-100.00,ENE,70,3.0,5.0,73,-99.99,,,-99.99,,2013-02-14 20:11:00,
2013-02-14 13:02:00,48.0,38.0,-100.00,East,85,3.0,6.0,68,-99.99,,,-99.99,,2013-02-14 21:02:00,
2013-02-14 13:11:00,48.0,38.0,-100.00,East,85,3.0,6.0,68,-99.99,,,-99.99,,2013-02-14 21:11:00,
2013-02-14 14:02:00,50.0,39.0,-100.00,SE,125,3.0,6.0,65,-99.99,,,-99.99,,2013-02-14 22:02:00,
2013-02-14 14:11:00,50.0,39.0,-100.00,SE,125,3.0,6.0,65,-99.99,,,-99.99,,2013-02-14 22:11:00,
2013-02-14 15:01:00,50.0,41.0,-100.00,SSE,160,3.0,6.0,71,-99.99,,,-99.99,,2013-02-14 23:01:00,
2013-02-14 15:11:00,50.0,41.0,-100.00,SSE,160,3.0,6.0,71,-99.99,,,-99.99,,2013-02-14 23:11:00,
2013-02-14 16:01:00,49.0,42.0,-100.00,East,80,2.0,3.0,76,-99.99,,,-99.99,,2013-02-15 00:01:00,
2013-02-14 16:11:00,49.0,42.0,-100.00,East,80,2.0,3.0,76,-99.99,,,-99.99,,2013-02-15 00:11:00,
2013-02-14 17:02:00,50.0,42.0,-100.00,SE,140,1.0,2.0,73,-99.99,,,-99.99,,2013-02-15 01:02:00,
2013-02-14 17:11:00,50.0,42.0,-100.00,SE,140,1.0,2.0,73,-99.99,,,-99.99,,2013-02-15 01:11:00,
2013-02-14 18:01:00,50.0,42.0,-100.00,NW,325,2.0,3.0,73,-99.99,,,-99.99,,2013-02-15 02:01:00,
2013-02-14 18:11:00,50.0,42.0,-100.00,NW,325,2.0,3.0,73,-99.99,,,-99.99,,2013-02-15 02:11:00,
2013-02-14 19:02:00,48.0,43.0,-100.00,NW,315,2.0,3.0,82,-99.99,,,-99.99,,2013-02-15 03:02:00,
2013-02-14 19:11:00,48.0,43.0,-100.00,NW,315,2.0,3.0,82,-99.99,,,-99.99,,2013-02-15 03:11:00,
2013-02-14 20:01:00,47.0,43.0,-100.00,West,270,1.0,3.0,85,-99.99,,,-99.99,,2013-02-15 04:01:00,
2013-02-14 20:11:00,47.0,43.0,-100.00,West,270,1.0,3.0,85,-99.99,,,-99.99,,2013-02-15 04:11:00,
2013-02-14 21:02:00,47.0,43.0,-100.00,West,275,1.0,3.0,85,-99.99,,,-99.99,,2013-02-15 05:02:00,
2013-02-14 21:11:00,47.0,43.0,-100.00,West,275,1.0,3.0,85,-99.99,,,-99.99,,2013-02-15 05:11:00,
2013-02-14 22:02:00,47.0,43.0,-100.00,West,260,1.0,3.0,85,-99.99,,,-99.99,,2013-02-15 06:02:00,
2013-02-14 22:11:00,47.0,43.0,-100.00,West,260,1.0,3.0,85,-99.99,,,-99.99,,2013-02-15 06:11:00,
2013-02-14 23:01:00,47.0,43.0,-100.00,West,265,2.0,3.0,85,-99.99,,,-99.99,,2013-02-15 07:01:00,
2013-02-14 23:11:00,47.0,43.0,-100.00,West,265,2.0,3.0,85,-99.99,,,-99.99,,2013-02-15 07:11:00,